A- A+ FrançaisEnglishEspañol中国

le plus proche LFBT Tarbes-Lourdes-PyrénéesLFPN Toussus-Le-NobleLFPZ St-Cyr-L'ecole LFLU Valence Chabeuil

manche à air

La météo aéronautique pour les pilotes, la préparation du vol avec les METAR (METeorological Aerodrome Report, message d'observation des conditions météorologiques pour l'aviation) et Les TAF (Terminal Aerodrome Forecast : message de prévision à court terme des conditions météorologiques pour l'aviation). Et les autres ressources comme les VAC (Visual Approch Chart) et les NOTAM (Notice To Airman) pour préprer les vols.

Aéroport Morelia (Mexique) / OACI MMMM/ IATA MLM

L'altitude de l'aéroport Morelia est de 1839 m=6033 ft. Il est situé à proximité de Morelia (Mexique). La météo générale à 5 jours est disponible pour Alvaro Obregon situé à 6.3 km.

METAR de l'aéroport Morelia - MMMM

MMMM 181522Z 00000KT 6SM BKN200 15/05 A3033 RMK 8/002 HZY

Décodage du METAR de l'aéroport Morelia (MX)

METAR émis par MMMM le samedi 18 janvier 2020 à 15:22 heure TU. Attention ce METAR est obsolète car il a été émis il y a 15 heure et 55 minutes.

La visibilité est de 9.7 km=6 sm.

La température est de 15°C=59 °F et le point rosée est de 5°C=41 °F . Ce qui correspond à 51% d'humidité relative.

Le QNH est de 1027 hPa=30.33 inHg

Vent de 0 kt=0 km/h, orienté à 0°.

Nuages : Couverture nuageuse fragmentée à 20000 ft=6100 mètres.

RMK 8/002 brume sèche Y

TAF de l'aéroport Morelia - MMMM

MMMM 181110Z 1812/1918 00000KT 6SM HZ SCT200 FM181800 20010KT P6SM SCT030 BKN200 FM190300 23004KT 6SM HZ BKN200 TEMPO 1912/1915 3SM BR BKN010 FM191800 06010KT P6SM SCT030 BKN200

MMMM 181110Z 1812/1918 00000KT 6SM brume sèche nuages épars à 200 FM181800 20010KT P6SM nuages épars à 030 couverture nuageuse fragmentée à 200 FM190300 23004KT 6SM brume sèche couverture nuageuse fragmentée à 200 temporairement 1912/1915 3SM brume couverture nuageuse fragmentée à 010 FM191800 06010KT P6SM nuages épars à 030 couverture nuageuse fragmentée à 200

Aéroport à proximité de Morelia

Météo générale à 5 jours à Alvaro Obregon (6.3 km)MMCY Aéroport Celaya (79 km)MMPN Aéroport Uruapan (118 km)MMQT Aéroport Queretaro (122 km)MMZM Aéroport Zamora (133 km)MMLO Aéroport Del Bajio Intl (136 km)MMTO Aéroport Toluca (163 km)

Vue aérienne de l'aéroport Morelia

NOTAM de l'aéroport Morelia

Les NOTAM sont fournis sans aucune garantie de leur actualité. Le pilote est le seul responsable de la vérification de sa validité avant de l'utiliser opérationnellement pour préparer un vol ou l'utiliser lors de sa navigation.

Pas de NOTAM

Sources des données